Time;durP1;ratioP1;P1;durP2;ratioP2;P2;SDS_P1;SDS_P2;PMS_P1;PMS_P2;Temp;Humidity;BMP_temperature;BMP_pressure;BME280_temperature;BME280_humidity;BME280_pressure;Samples;Min_cycle;Max_cycle;Signal;HPM_P1;HPM_P2
2022/09/29 00:00:40;;;;;;;3.88;2.55;;;;;;;16.59;67.56;94029.09;5116782;28;20202;-70
2022/09/29 00:03:07;;;;;;;7.15;2.95;;;;;;;16.61;66.90;94032.28;5117175;27;20199;-70
2022/09/29 00:05:35;;;;;;;5.35;2.30;;;;;;;16.63;66.79;94020.69;5117017;28;20212;-70
2022/09/29 00:08:02;;;;;;;4.47;3.20;;;;;;;16.64;66.96;94025.88;5116388;28;20624;-70
2022/09/29 00:10:29;;;;;;;4.28;3.28;;;;;;;16.61;67.48;94040.63;5117011;28;20623;-70
2022/09/29 00:12:57;;;;;;;6.10;3.40;;;;;;;16.52;67.72;94035.56;5116239;28;20203;-70
2022/09/29 00:15:23;;;;;;;6.13;3.60;;;;;;;16.48;68.32;94023.66;5117493;28;20199;-70
2022/09/29 00:17:50;;;;;;;5.80;3.60;;;;;;;16.47;68.24;94026.88;5116836;28;20511;-70
2022/09/29 00:20:17;;;;;;;4.45;3.38;;;;;;;16.42;68.66;94030.13;5117148;28;20199;-70
2022/09/29 00:22:44;;;;;;;5.38;3.65;;;;;;;16.42;69.05;94030.91;5117146;28;20199;-70
2022/09/29 00:25:10;;;;;;;5.68;3.65;;;;;;;16.42;69.31;94033.69;5115904;28;20281;-70
2022/09/29 00:27:37;;;;;;;5.70;3.58;;;;;;;16.37;69.01;94034.91;5117000;28;20196;-70
2022/09/29 00:30:09;;;;;;;4.78;3.20;;;;;;;16.28;69.73;94029.06;5115990;28;20510;-70
2022/09/29 00:32:35;;;;;;;4.35;3.60;;;;;;;16.20;70.54;94024.81;5116630;28;20184;-70
2022/09/29 00:35:02;;;;;;;4.43;3.55;;;;;;;16.18;70.54;94035.53;5116441;28;20526;-70
2022/09/29 00:37:29;;;;;;;3.85;3.50;;;;;;;16.11;71.53;94030.84;5115917;28;20204;-70
2022/09/29 00:39:56;;;;;;;5.57;4.00;;;;;;;16.10;71.28;94029.28;5115927;28;20520;-70
2022/09/29 00:42:23;;;;;;;5.70;3.58;;;;;;;16.09;71.73;94024.91;5115738;28;20676;-70
2022/09/29 00:45:13;;;;;;;5.75;3.78;;;;;;;16.05;71.68;94023.34;5115799;28;20194;-70
2022/09/29 00:47:42;;;;;;;4.82;3.65;;;;;;;16.01;72.28;94017.03;5116632;28;20222;-70
2022/09/29 00:50:15;;;;;;;6.57;3.58;;;;;;;15.96;72.03;94025.84;5116024;28;20196;-70
2022/09/29 00:52:44;;;;;;;5.28;3.78;;;;;;;15.91;72.10;94017.97;5115430;28;20207;-70
2022/09/29 00:55:15;;;;;;;4.80;3.72;;;;;;;15.86;72.55;94025.53;5116462;28;20184;-70
2022/09/29 00:57:45;;;;;;;4.70;3.53;;;;;;;15.82;72.27;94027.56;5116500;28;20192;-70
2022/09/29 01:00:15;;;;;;;5.53;3.35;;;;;;;15.79;72.46;94027.59;5115522;28;20310;-70
2022/09/29 01:02:45;;;;;;;5.93;3.97;;;;;;;15.74;72.55;94025.25;5116351;28;20203;-70
2022/09/29 01:05:13;;;;;;;6.82;4.05;;;;;;;15.72;72.93;94027.66;5114235;28;20486;-70
2022/09/29 01:07:42;;;;;;;5.05;3.70;;;;;;;15.72;72.09;94022.09;5115820;28;20203;-70
2022/09/29 01:10:10;;;;;;;4.38;3.38;;;;;;;15.73;72.24;94027.25;5115514;28;20191;-70
2022/09/29 01:12:37;;;;;;;5.07;3.72;;;;;;;15.75;72.10;94027.63;5115097;28;20187;-72
2022/09/29 01:15:04;;;;;;;4.28;3.13;;;;;;;15.76;72.16;94025.63;5115182;28;20596;-72
2022/09/29 01:17:32;;;;;;;4.45;4.07;;;;;;;15.74;72.39;94019.72;5114721;28;20207;-72
2022/09/29 01:20:06;;;;;;;4.40;3.97;;;;;;;15.71;72.76;94024.09;5116325;28;20194;-72
2022/09/29 01:23:08;;;;;;;5.60;3.72;;;;;;;15.69;72.94;94020.94;5115683;28;20548;-72
2022/09/29 01:26:16;;;;;;;4.50;4.10;;;;;;;15.66;73.37;94018.97;5115050;28;20214;-72
2022/09/29 01:29:18;;;;;;;6.32;4.32;;;;;;;15.62;73.63;94020.97;5088958;28;20218;-72
2022/09/29 01:31:51;;;;;;;7.85;3.85;;;;;;;15.57;73.54;94015.84;5114019;28;20231;-72
2022/09/29 01:34:23;;;;;;;5.60;3.75;;;;;;;15.50;73.29;94030.59;5114651;28;20215;-72
2022/09/29 01:36:56;;;;;;;6.15;3.85;;;;;;;15.44;73.52;94029.47;5115854;28;20195;-71
2022/09/29 01:39:27;;;;;;;4.20;3.80;;;;;;;15.38;73.63;94033.88;5115908;28;20202;-72
2022/09/29 01:41:58;;;;;;;6.57;4.30;;;;;;;15.34;73.59;94036.66;5115408;28;20196;-72
2022/09/29 01:44:28;;;;;;;4.15;3.58;;;;;;;15.27;73.85;94045.06;5115808;28;20180;-72
2022/09/29 01:46:59;;;;;;;4.40;3.80;;;;;;;15.23;74.16;94041.53;5114788;28;20285;-72
2022/09/29 01:49:29;;;;;;;7.03;4.30;;;;;;;15.23;74.47;94037.97;5115937;28;20180;-72
2022/09/29 01:52:00;;;;;;;4.20;3.80;;;;;;;15.20;74.51;94045.09;5114762;28;20618;-72
2022/09/29 01:54:31;;;;;;;3.92;3.53;;;;;;;15.20;74.47;94047.09;5114960;28;20210;-72
2022/09/29 01:57:01;;;;;;;5.03;3.90;;;;;;;15.17;74.88;94043.94;5114416;28;20204;-72
2022/09/29 01:59:32;;;;;;;4.05;3.63;;;;;;;15.17;75.06;94046.69;5114747;28;20196;-72
2022/09/29 02:02:06;;;;;;;4.35;3.60;;;;;;;15.15;75.04;94040.00;5115676;28;20194;-72
2022/09/29 02:04:36;;;;;;;5.18;3.67;;;;;;;15.18;75.39;94044.75;5115641;28;20187;-72
2022/09/29 02:07:06;;;;;;;6.13;3.55;;;;;;;15.17;75.72;94040.38;5115355;28;20211;-72
2022/09/29 02:09:36;;;;;;;5.70;4.03;;;;;;;15.19;75.83;94045.53;5115156;28;20184;-72
2022/09/29 02:12:06;;;;;;;5.40;4.00;;;;;;;15.24;75.84;94045.88;5114622;28;20198;-72
2022/09/29 02:14:35;;;;;;;6.47;4.25;;;;;;;15.27;76.09;94039.50;5115383;28;20275;-72
2022/09/29 02:17:10;;;;;;;5.38;3.50;;;;;;;15.31;75.62;94042.25;5119028;28;20206;-72
2022/09/29 02:19:38;;;;;;;5.03;3.45;;;;;;;15.38;75.05;94047.75;5118603;28;20198;-72
2022/09/29 02:22:05;;;;;;;5.93;3.65;;;;;;;15.56;73.60;94050.41;5118552;28;20199;-72
2022/09/29 02:24:32;;;;;;;4.70;2.85;;;;;;;15.70;72.50;94049.53;5119143;28;20208;-72
2022/09/29 02:26:59;;;;;;;6.95;2.60;;;;;;;15.84;69.82;94043.84;5119170;28;20560;-72
2022/09/29 02:29:26;;;;;;;5.78;2.55;;;;;;;15.98;68.75;94040.16;5118497;28;20544;-72
2022/09/29 02:31:53;;;;;;;4.20;2.40;;;;;;;16.09;68.35;94046.38;5118749;28;20698;-72
2022/09/29 02:34:22;;;;;;;5.82;2.20;;;;;;;16.19;67.54;94041.88;5118623;28;20206;-72
2022/09/29 02:36:56;;;;;;;6.10;3.47;;;;;;;16.22;68.46;94047.41;5118290;28;20199;-72
2022/09/29 02:39:34;;;;;;;6.00;3.60;;;;;;;16.06;69.56;94047.19;5118485;28;20282;-72
2022/09/29 02:42:09;;;;;;;4.82;3.58;;;;;;;15.87;70.29;94052.16;5118045;28;20195;-72
2022/09/29 02:44:51;;;;;;;5.82;3.83;;;;;;;15.73;71.35;94057.06;5118767;28;20571;-72
2022/09/29 02:47:30;;;;;;;5.22;3.90;;;;;;;15.68;71.94;94044.38;5118852;28;20260;-72
2022/09/29 02:50:16;;;;;;;5.28;4.00;;;;;;;15.60;72.45;94051.94;5118706;28;20603;-72
2022/09/29 02:52:53;;;;;;;5.50;4.03;;;;;;;15.53;72.24;94057.56;5117955;28;20196;-72
2022/09/29 02:55:21;;;;;;;5.15;3.33;;;;;;;15.49;72.38;94045.69;5118938;28;20200;-72
2022/09/29 02:57:51;;;;;;;3.60;3.30;;;;;;;15.46;72.55;94026.25;5117517;28;20612;-72
2022/09/29 03:00:19;;;;;;;6.30;3.38;;;;;;;15.45;72.03;93992.13;5118812;28;20215;-72
2022/09/29 03:02:46;;;;;;;6.05;3.30;;;;;;;15.43;71.72;94005.63;5117794;28;20207;-72
2022/09/29 03:05:16;;;;;;;6.78;3.85;;;;;;;15.40;72.09;94014.81;5118323;28;20180;-72
2022/09/29 03:07:43;;;;;;;5.07;3.55;;;;;;;15.39;72.27;93999.31;5118192;28;20670;-73
2022/09/29 03:10:11;;;;;;;4.32;3.47;;;;;;;15.39;72.23;93999.31;5117778;28;20191;-72
2022/09/29 03:12:38;;;;;;;3.45;3.15;;;;;;;15.39;72.20;94029.88;5118184;28;20207;-72
2022/09/29 03:15:06;;;;;;;4.75;3.45;;;;;;;15.39;72.69;94027.09;5117099;28;20192;-72
2022/09/29 03:17:33;;;;;;;3.90;3.50;;;;;;;15.38;73.01;94040.22;5118752;28;20200;-72
2022/09/29 03:20:00;;;;;;;4.72;3.17;;;;;;;15.38;72.91;94045.75;5118440;28;20199;-72
2022/09/29 03:22:28;;;;;;;5.22;3.08;;;;;;;15.38;72.89;94056.09;5118278;28;20176;-72
2022/09/29 03:24:55;;;;;;;3.78;3.10;;;;;;;15.37;72.97;94060.06;5118242;28;20199;-72
2022/09/29 03:27:22;;;;;;;5.60;3.70;;;;;;;15.35;73.01;94073.56;5117631;28;20310;-72
2022/09/29 03:29:49;;;;;;;4.30;3.63;;;;;;;15.28;73.35;94063.28;5117806;28;20527;-72
2022/09/29 03:32:16;;;;;;;6.88;4.60;;;;;;;15.26;73.85;94064.91;5116699;28;20268;-72
2022/09/29 03:34:42;;;;;;;7.63;4.40;;;;;;;15.25;73.73;94080.81;5116809;28;20207;-72
2022/09/29 03:37:09;;;;;;;4.03;3.20;;;;;;;15.24;73.68;94070.09;5117045;28;20198;-72
2022/09/29 03:39:37;;;;;;;5.32;3.88;;;;;;;15.25;73.60;94083.59;5117152;28;20188;-72
2022/09/29 03:42:05;;;;;;;4.13;3.72;;;;;;;15.25;73.68;94091.09;5117816;28;20188;-72
2022/09/29 03:44:31;;;;;;;5.18;3.72;;;;;;;15.25;73.81;94083.59;5117104;28;20195;-72
2022/09/29 03:46:59;;;;;;;4.13;3.05;;;;;;;15.28;73.52;94074.41;5116784;28;20204;-72
2022/09/29 03:49:26;;;;;;;4.55;3.60;;;;;;;15.28;74.01;94065.28;5117276;28;20192;-70
2022/09/29 03:51:53;;;;;;;4.38;3.22;;;;;;;15.26;73.22;94073.25;5116873;28;20199;-70
2022/09/29 03:54:19;;;;;;;7.53;4.03;;;;;;;15.24;73.33;94081.19;5117746;28;20195;-70
2022/09/29 03:56:48;;;;;;;5.60;4.22;;;;;;;15.20;73.29;94072.88;5117339;28;20203;-70
2022/09/29 03:59:15;;;;;;;6.60;4.07;;;;;;;15.13;73.64;94065.38;5116643;28;20199;-70
2022/09/29 04:01:41;;;;;;;6.20;3.63;;;;;;;15.10;74.48;94062.63;5116621;28;20203;-70
2022/09/29 04:04:09;;;;;;;5.53;3.58;;;;;;;15.06;74.52;94064.63;5116151;28;20207;-70
2022/09/29 04:06:36;;;;;;;6.00;3.60;;;;;;;15.06;74.30;94073.75;5116533;28;20212;-70
2022/09/29 04:09:03;;;;;;;7.00;3.80;;;;;;;15.03;74.23;94066.25;5117266;28;20283;-70
2022/09/29 04:11:30;;;;;;;5.65;4.03;;;;;;;15.01;74.63;94065.06;5117342;28;20202;-70
2022/09/29 04:13:58;;;;;;;5.70;3.45;;;;;;;14.99;74.66;94065.47;5117575;28;20176;-70
2022/09/29 04:16:25;;;;;;;7.10;3.70;;;;;;;14.97;75.14;94067.88;5117221;28;20176;-70
2022/09/29 04:18:52;;;;;;;4.18;3.78;;;;;;;14.99;74.45;94062.69;5117087;28;20195;-70
2022/09/29 04:21:19;;;;;;;6.35;3.78;;;;;;;14.98;74.58;94057.56;5117604;28;20211;-70
2022/09/29 04:23:46;;;;;;;10.38;5.03;;;;;;;14.95;74.63;94061.91;5116556;28;20199;-70
2022/09/29 04:26:12;;;;;;;9.40;3.88;;;;;;;14.95;74.57;94059.16;5116261;28;20198;-70
2022/09/29 04:28:40;;;;;;;6.03;3.83;;;;;;;14.91;74.47;94053.63;5116143;28;20199;-70
2022/09/29 04:31:08;;;;;;;9.27;3.95;;;;;;;14.89;74.70;94060.78;5115672;28;20223;-70
2022/09/29 04:33:38;;;;;;;5.85;4.22;;;;;;;14.83;74.74;94070.72;5116799;28;20198;-70
2022/09/29 04:36:05;;;;;;;7.55;4.07;;;;;;;14.82;74.99;94066.38;5116172;28;20183;-70
2022/09/29 04:38:32;;;;;;;6.30;4.10;;;;;;;14.80;74.76;94064.00;5115460;28;20195;-70
2022/09/29 04:40:59;;;;;;;6.97;4.07;;;;;;;14.79;75.15;94069.94;5115955;28;20192;-70
2022/09/29 04:43:25;;;;;;;7.82;4.97;;;;;;;14.76;75.26;94054.09;5115616;28;20624;-70
2022/09/29 04:45:52;;;;;;;7.38;4.10;;;;;;;14.71;75.24;94063.66;5116003;28;20207;-70
2022/09/29 04:48:20;;;;;;;7.10;4.55;;;;;;;14.69;75.48;94052.16;5115626;28;20216;-70
2022/09/29 04:50:47;;;;;;;7.03;4.25;;;;;;;14.67;75.94;94052.56;5115610;28;20196;-70
2022/09/29 04:53:14;;;;;;;4.63;3.90;;;;;;;14.67;75.83;94060.88;5115688;28;20226;-70
2022/09/29 04:55:41;;;;;;;8.10;4.32;;;;;;;14.65;76.17;94062.47;5115498;28;20207;-70
2022/09/29 04:58:07;;;;;;;7.88;4.43;;;;;;;14.63;76.64;94056.53;5115258;28;20195;-69
2022/09/29 05:00:34;;;;;;;7.47;3.92;;;;;;;14.62;76.55;94055.75;5115642;28;20615;-70
2022/09/29 05:03:02;;;;;;;8.60;4.32;;;;;;;14.63;76.81;94050.97;5115007;28;20195;-70
2022/09/29 05:05:30;;;;;;;9.43;4.65;;;;;;;14.61;76.71;94056.94;5115417;28;20192;-69
2022/09/29 05:07:58;;;;;;;10.45;4.65;;;;;;;14.61;77.04;94068.03;5115377;28;20222;-70
2022/09/29 05:10:25;;;;;;;10.68;5.28;;;;;;;14.63;76.64;94068.44;5115129;28;20206;-70
2022/09/29 05:12:52;;;;;;;5.85;4.10;;;;;;;14.65;76.41;94065.25;5115237;28;20192;-70
2022/09/29 05:15:19;;;;;;;6.35;3.90;;;;;;;14.67;76.53;94051.78;5116227;28;20187;-70
2022/09/29 05:17:46;;;;;;;9.88;4.20;;;;;;;14.71;76.44;94055.31;5116141;28;20184;-70
2022/09/29 05:20:13;;;;;;;6.70;4.18;;;;;;;14.71;76.97;94069.19;5116299;28;20176;-70
2022/09/29 05:22:43;;;;;;;9.35;5.28;;;;;;;14.77;76.62;94073.13;5116099;28;20249;-70
2022/09/29 05:25:10;;;;;;;6.72;4.85;;;;;;;14.82;76.44;94060.81;5114758;28;20199;-70
2022/09/29 05:27:39;;;;;;;8.80;4.95;;;;;;;14.85;76.47;94069.13;5115206;28;20215;-70
2022/09/29 05:30:08;;;;;;;8.77;5.28;;;;;;;14.85;76.58;94077.47;5115008;28;20202;-70
2022/09/29 05:32:35;;;;;;;9.55;5.63;;;;;;;14.90;75.81;94077.03;5115856;28;20194;-70
2022/09/29 05:35:02;;;;;;;5.40;4.82;;;;;;;14.93;75.75;94072.66;5115868;28;20198;-72
2022/09/29 05:37:28;;;;;;;7.18;5.20;;;;;;;15.00;75.95;94091.28;5115806;28;20528;-72
2022/09/29 05:39:57;;;;;;;10.05;5.68;;;;;;;15.01;75.79;94092.84;5115782;28;20203;-72
2022/09/29 05:42:24;;;;;;;8.18;5.13;;;;;;;15.07;75.29;94092.03;5115184;28;20511;-72
2022/09/29 05:44:51;;;;;;;8.52;5.25;;;;;;;15.16;75.06;94092.34;5115911;28;20206;-72
2022/09/29 05:47:18;;;;;;;7.30;4.70;;;;;;;15.17;75.29;94090.34;5115743;28;20199;-72
2022/09/29 05:49:45;;;;;;;4.90;4.15;;;;;;;15.26;74.85;94079.59;5115504;28;20199;-72
2022/09/29 05:52:12;;;;;;;7.65;5.18;;;;;;;15.32;74.48;94091.06;5115565;28;20207;-72
2022/09/29 05:54:38;;;;;;;6.72;4.43;;;;;;;15.31;74.38;94093.03;5114766;28;20203;-72
2022/09/29 05:57:07;;;;;;;6.15;4.18;;;;;;;15.33;74.58;94095.44;5115594;28;20191;-72
2022/09/29 05:59:33;;;;;;;5.65;4.63;;;;;;;15.32;74.77;94105.75;5114897;28;20207;-71
2022/09/29 06:02:00;;;;;;;4.68;3.70;;;;;;;15.38;74.20;94097.78;5114574;28;20631;-72
2022/09/29 06:04:27;;;;;;;7.90;4.50;;;;;;;15.55;73.95;94101.63;5114395;28;20196;-71
2022/09/29 06:06:54;;;;;;;5.35;4.50;;;;;;;15.58;74.02;94104.38;5115271;28;20213;-72
2022/09/29 06:09:21;;;;;;;5.40;4.10;;;;;;;15.63;74.00;94103.16;5115556;28;20187;-72
2022/09/29 06:11:48;;;;;;;7.70;4.43;;;;;;;15.68;73.75;94102.72;5114800;28;20200;-72
2022/09/29 06:14:16;;;;;;;6.03;4.13;;;;;;;15.69;73.57;94106.34;5114790;28;20206;-72
2022/09/29 06:16:43;;;;;;;4.47;3.92;;;;;;;15.71;73.15;94098.34;5115190;28;20195;-72
2022/09/29 06:19:10;;;;;;;4.47;3.85;;;;;;;15.72;72.79;94095.16;5114487;28;20231;-72
2022/09/29 06:21:38;;;;;;;6.43;4.28;;;;;;;15.73;73.05;94098.75;5114401;28;20184;-71
2022/09/29 06:24:06;;;;;;;6.93;4.60;;;;;;;15.74;73.10;94094.75;5115530;28;20195;-72
2022/09/29 06:26:33;;;;;;;8.93;4.65;;;;;;;15.76;72.96;94109.84;5114444;28;20629;-71
2022/09/29 06:28:59;;;;;;;6.15;4.75;;;;;;;15.79;72.89;94103.44;5114304;28;20204;-72
2022/09/29 06:31:29;;;;;;;6.25;4.68;;;;;;;15.81;72.48;94098.28;5114017;28;20667;-72
2022/09/29 06:33:57;;;;;;;4.95;4.38;;;;;;;15.85;72.78;94103.81;5114400;28;20203;-72
2022/09/29 06:39:12;;;;;;;5.50;4.90;;;;;;;15.97;72.24;94113.63;5113968;28;20192;-72
2022/09/29 06:41:38;;;;;;;8.98;4.82;;;;;;;16.02;72.32;94104.84;5114589;28;20265;-72
2022/09/29 06:44:05;;;;;;;5.45;4.13;;;;;;;16.08;71.79;94103.19;5114319;28;20191;-72
2022/09/29 06:46:34;;;;;;;9.68;4.55;;;;;;;16.14;71.58;94101.56;5114885;28;20192;-72
2022/09/29 06:49:01;;;;;;;8.02;4.97;;;;;;;16.20;71.66;94102.69;5115191;28;20208;-72
2022/09/29 06:51:28;;;;;;;8.18;4.65;;;;;;;16.23;71.09;94107.44;5114728;28;20196;-72
2022/09/29 06:53:54;;;;;;;9.13;6.03;;;;;;;16.27;70.74;94113.75;5115224;28;20194;-72
2022/09/29 06:56:22;;;;;;;11.32;6.03;;;;;;;16.33;71.05;94120.44;5114229;28;20198;-72
2022/09/29 06:58:49;;;;;;;7.50;5.57;;;;;;;16.36;70.82;94125.19;5115113;28;20213;-72
2022/09/29 07:01:15;;;;;;;7.60;4.90;;;;;;;16.41;70.75;94132.28;5114151;28;20194;-72
2022/09/29 07:03:44;;;;;;;7.35;5.95;;;;;;;16.45;70.84;94126.69;5116954;28;20184;-71
2022/09/29 07:06:11;;;;;;;9.07;5.18;;;;;;;16.50;70.67;94129.81;5117836;28;20191;-71
2022/09/29 07:08:39;;;;;;;7.43;5.32;;;;;;;16.53;70.20;94129.00;5118533;28;20273;-71
2022/09/29 07:11:06;;;;;;;7.20;4.85;;;;;;;16.55;70.18;94134.91;5117767;28;20203;-72
2022/09/29 07:13:34;;;;;;;7.00;4.68;;;;;;;16.60;70.34;94120.56;5118716;28;20188;-74
2022/09/29 07:16:06;;;;;;;7.10;5.40;;;;;;;16.70;69.88;94127.19;5118042;28;20196;-73
2022/09/29 07:18:34;;;;;;;10.23;5.05;;;;;;;16.77;69.29;94129.94;5117683;28;20248;-73
2022/09/29 07:21:02;;;;;;;6.63;4.68;;;;;;;16.85;69.30;94122.31;5118372;28;20188;-73
2022/09/29 07:23:30;;;;;;;6.90;4.30;;;;;;;16.95;68.75;94115.00;5117660;28;20184;-73
2022/09/29 07:25:57;;;;;;;6.43;4.50;;;;;;;17.04;68.30;94121.66;5100664;28;20192;-73
2022/09/29 07:28:24;;;;;;;6.43;4.68;;;;;;;17.09;67.95;94114.81;5118333;28;20222;-73
2022/09/29 07:31:01;;;;;;;8.98;5.25;;;;;;;17.13;67.50;94112.78;5118345;28;20228;-74
2022/09/29 07:33:27;;;;;;;8.27;5.05;;;;;;;17.15;67.43;94110.38;5117141;28;20187;-73
2022/09/29 07:35:55;;;;;;;7.00;4.68;;;;;;;17.21;67.04;94107.91;5118534;28;20184;-73
2022/09/29 07:38:23;;;;;;;8.40;5.25;;;;;;;17.28;67.30;94121.75;5118344;28;20233;-74
2022/09/29 07:40:50;;;;;;;5.70;4.07;;;;;;;17.38;67.07;94122.81;5117463;28;20270;-73
2022/09/29 07:43:17;;;;;;;5.28;4.55;;;;;;;17.50;65.82;94111.06;5118158;28;20192;-73
2022/09/29 07:45:48;;;;;;;4.97;4.30;;;;;;;17.57;65.84;94119.34;5118027;28;20202;-73
2022/09/29 07:48:15;;;;;;;4.97;4.05;;;;;;;17.59;66.18;94118.94;5117053;28;20208;-73
2022/09/29 07:50:42;;;;;;;6.88;4.82;;;;;;;17.60;65.92;94134.44;5117136;28;20207;-73
2022/09/29 07:53:09;;;;;;;7.72;4.95;;;;;;;17.64;65.70;94135.97;5118254;28;20192;-73
2022/09/29 07:55:38;;;;;;;5.00;4.03;;;;;;;17.67;65.67;94143.47;5117835;28;20195;-74
2022/09/29 07:58:04;;;;;;;8.75;5.57;;;;;;;17.67;65.48;94148.28;5117828;28;20180;-73
2022/09/29 08:00:32;;;;;;;6.82;4.65;;;;;;;17.64;65.50;94147.09;5117581;28;20183;-73
2022/09/29 08:03:02;;;;;;;9.48;5.68;;;;;;;17.62;65.87;94148.75;5117412;28;20270;-73
2022/09/29 08:05:32;;;;;;;5.72;3.92;;;;;;;17.61;65.50;94145.19;5117619;28;20548;-72
2022/09/29 08:07:59;;;;;;;5.70;5.10;;;;;;;17.66;65.12;94153.06;5116369;28;20223;-72
2022/09/29 08:10:27;;;;;;;10.18;5.68;;;;;;;17.69;65.39;94160.59;5116913;28;20607;-72
2022/09/29 08:12:55;;;;;;;8.77;5.53;;;;;;;17.72;65.89;94170.09;5116173;28;20210;-70
2022/09/29 08:15:22;;;;;;;6.55;4.50;;;;;;;17.84;65.32;94164.00;5117327;28;20184;-70
2022/09/29 08:17:48;;;;;;;6.75;4.47;;;;;;;17.97;64.53;94162.19;5117264;28;20186;-75
2022/09/29 08:20:18;;;;;;;6.22;4.95;;;;;;;17.99;64.45;94164.56;5116712;28;20200;-72
2022/09/29 08:22:45;;;;;;;7.15;5.82;;;;;;;17.94;64.16;94167.84;5116263;28;20188;-71
2022/09/29 08:25:12;;;;;;;8.43;5.70;;;;;;;17.90;64.83;94162.31;5117248;28;20194;-69
2022/09/29 08:27:39;;;;;;;9.38;5.80;;;;;;;17.89;65.55;94159.94;5116797;28;20203;-69
2022/09/29 08:30:10;;;;;;;8.35;5.35;;;;;;;17.89;65.36;94166.28;5116269;28;20288;-68
2022/09/29 08:32:37;;;;;;;8.32;5.60;;;;;;;17.89;64.70;94169.09;5116087;28;20234;-68
2022/09/29 08:35:05;;;;;;;9.05;5.90;;;;;;;17.89;64.59;94157.94;5116775;28;20192;-68
2022/09/29 08:37:32;;;;;;;9.35;5.60;;;;;;;17.90;64.59;94158.72;5115966;28;20204;-68
2022/09/29 08:39:59;;;;;;;8.68;4.88;;;;;;;17.92;64.89;94153.50;5115808;28;20207;-69
2022/09/29 08:42:30;;;;;;;7.47;5.07;;;;;;;17.98;64.25;94166.56;5115786;28;20184;-68
2022/09/29 08:44:59;;;;;;;6.70;5.50;;;;;;;18.01;64.13;94157.34;5116690;28;20198;-68
2022/09/29 08:47:29;;;;;;;15.00;7.47;;;;;;;18.02;64.42;94149.78;5116945;28;20184;-68
2022/09/29 08:49:57;;;;;;;11.00;6.43;;;;;;;18.04;64.27;94159.28;5115487;28;20208;-68
2022/09/29 08:52:26;;;;;;;7.35;5.95;;;;;;;18.08;64.25;94158.44;5115844;28;20219;-69
2022/09/29 08:54:57;;;;;;;9.00;5.78;;;;;;;18.10;65.02;94158.81;5115753;28;20200;-68
2022/09/29 08:57:25;;;;;;;10.50;6.15;;;;;;;18.13;63.53;94157.97;5116007;28;20252;-68
2022/09/29 08:59:56;;;;;;;12.40;5.47;;;;;;;18.19;63.95;94157.06;5115726;28;20220;-69
2022/09/29 09:02:59;;;;;;;9.32;5.90;;;;;;;18.25;63.53;94157.34;5116623;28;20508;-68
2022/09/29 09:05:37;;;;;;;7.75;5.38;;;;;;;18.27;63.13;94155.72;5116548;28;20248;-68
2022/09/29 09:08:10;;;;;;;7.47;4.82;;;;;;;18.31;62.76;94147.28;5116284;28;20208;-68
2022/09/29 09:10:45;;;;;;;7.53;4.55;;;;;;;18.33;63.04;94150.44;5116238;28;20596;-68
2022/09/29 09:13:41;;;;;;;7.40;3.72;;;;;;;18.35;61.39;94150.03;5115056;28;20622;-68
2022/09/29 09:16:19;;;;;;;5.40;2.63;;;;;;;18.42;57.85;94159.06;5116116;28;20183;-68
2022/09/29 09:18:58;;;;;;;3.88;2.00;;;;;;;18.58;54.61;94144.41;5116225;28;20198;-68
2022/09/29 09:21:27;;;;;;;3.78;2.17;;;;;;;18.69;55.54;94133.03;5116414;28;20191;-68
2022/09/29 09:23:55;;;;;;;4.05;2.40;;;;;;;18.78;53.43;94150.06;5115069;28;20428;-68
2022/09/29 09:26:27;;;;;;;3.53;1.88;;;;;;;18.93;52.61;94147.78;5115515;28;20195;-68
2022/09/29 09:28:55;;;;;;;3.42;1.90;;;;;;;19.04;52.86;94131.59;5116061;28;20203;-68
2022/09/29 09:31:26;;;;;;;2.95;1.95;;;;;;;19.09;51.76;94147.06;5115889;28;20238;-68
2022/09/29 09:33:58;;;;;;;3.88;1.95;;;;;;;19.17;51.70;94132.53;5115247;28;20199;-68
2022/09/29 09:36:32;;;;;;;3.28;1.92;;;;;;;19.35;51.62;94139.72;5115317;28;20199;-68
2022/09/29 09:39:01;;;;;;;5.22;2.10;;;;;;;19.83;49.11;94144.69;5116103;28;20190;-69
2022/09/29 09:41:29;;;;;;;2.45;1.80;;;;;;;20.12;48.50;94150.41;5115822;28;20194;-68
2022/09/29 09:43:59;;;;;;;2.72;1.90;;;;;;;20.23;48.42;94138.16;5116023;28;20532;-67
2022/09/29 09:46:29;;;;;;;3.42;2.08;;;;;;;20.24;48.85;94146.13;5115691;28;20596;-69
2022/09/29 09:49:02;;;;;;;3.25;2.00;;;;;;;20.35;47.95;94152.25;5114867;28;20211;-69
2022/09/29 09:51:34;;;;;;;6.03;2.30;;;;;;;20.47;47.78;94142.34;5115829;28;20588;-69
2022/09/29 09:54:05;;;;;;;2.95;1.92;;;;;;;20.65;50.01;94142.69;5114758;28;20227;-68
2022/09/29 09:56:43;;;;;;;3.80;2.22;;;;;;;20.96;48.14;94138.69;5115218;28;20199;-68
2022/09/29 09:59:19;;;;;;;3.13;2.03;;;;;;;21.26;48.42;94145.84;5114896;28;20195;-68
2022/09/29 10:01:46;;;;;;;3.58;2.13;;;;;;;21.44;45.95;94128.53;5114848;28;20206;-69
2022/09/29 10:04:14;;;;;;;2.08;1.75;;;;;;;21.59;47.08;94141.69;5114524;28;20635;-69
2022/09/29 10:06:41;;;;;;;3.65;1.88;;;;;;;21.67;46.18;94152.69;5115824;28;20184;-68
2022/09/29 10:09:13;;;;;;;3.10;1.90;;;;;;;21.64;45.51;94143.13;5114565;28;20212;-68
2022/09/29 10:11:41;;;;;;;2.78;2.50;;;;;;;21.52;47.01;94150.31;5114342;28;20203;-70
2022/09/29 10:14:12;;;;;;;3.30;2.00;;;;;;;21.45;45.04;94124.50;5114852;28;20196;-68
2022/09/29 10:16:44;;;;;;;2.78;2.50;;;;;;;21.25;44.98;94136.66;5114702;28;20554;-68
2022/09/29 10:19:11;;;;;;;3.88;2.70;;;;;;;21.16;44.72;94130.91;5115051;28;20523;-68
2022/09/29 10:21:41;;;;;;;5.43;2.67;;;;;;;21.05;45.74;94130.41;5115385;28;20200;-69
2022/09/29 10:24:22;;;;;;;6.72;2.60;;;;;;;20.93;46.49;94123.53;5115769;28;20191;-69
2022/09/29 10:26:51;;;;;;;5.22;2.40;;;;;;;20.85;46.45;94136.97;5114605;28;20211;-69
2022/09/29 10:29:23;;;;;;;6.00;2.13;;;;;;;20.85;46.55;94130.56;5115152;28;20211;-69
2022/09/29 10:32:05;;;;;;;3.75;2.45;;;;;;;21.09;47.20;94134.69;5114377;28;20263;-68
2022/09/29 10:34:33;;;;;;;3.75;2.40;;;;;;;21.41;46.52;94126.63;5114668;28;20192;-69
2022/09/29 10:37:03;;;;;;;3.22;2.30;;;;;;;21.71;45.60;94126.09;5116711;28;20651;-69
2022/09/29 10:39:39;;;;;;;3.00;2.42;;;;;;;22.00;44.85;94139.22;5119722;28;20200;-69
2022/09/29 10:42:17;;;;;;;2.95;2.35;;;;;;;22.17;44.37;94131.53;5119915;28;20206;-70
2022/09/29 10:44:50;;;;;;;3.10;2.40;;;;;;;22.27;43.26;94142.41;5119265;28;20280;-69
2022/09/29 10:47:17;;;;;;;2.40;2.05;;;;;;;22.31;42.39;94148.69;5119016;28;20192;-70
2022/09/29 10:49:44;;;;;;;2.53;2.25;;;;;;;22.36;43.67;94141.72;5118668;28;20214;-69
2022/09/29 10:52:22;;;;;;;2.70;2.05;;;;;;;22.58;43.13;94127.72;5119002;28;20211;-70
2022/09/29 10:54:55;;;;;;;3.03;2.30;;;;;;;22.73;41.95;94142.06;5118407;28;20195;-69
2022/09/29 10:57:25;;;;;;;2.30;2.10;;;;;;;22.72;42.27;94140.50;5118018;28;20199;-69
2022/09/29 10:59:55;;;;;;;3.42;2.20;;;;;;;22.77;42.15;94139.94;5118082;28;20195;-69
2022/09/29 11:02:26;;;;;;;3.85;2.28;;;;;;;22.85;41.71;94124.41;5118966;28;20180;-69
2022/09/29 11:04:53;;;;;;;2.47;2.28;;;;;;;22.88;41.68;94129.13;5118427;28;20252;-69
2022/09/29 11:07:22;;;;;;;2.50;2.30;;;;;;;22.93;41.46;94122.94;5118497;28;20191;-69
2022/09/29 11:09:53;;;;;;;2.50;2.13;;;;;;;23.01;41.45;94126.28;5117950;28;20545;-69
2022/09/29 11:12:30;;;;;;;3.33;2.25;;;;;;;23.04;41.36;94128.19;5117721;28;20634;-69
2022/09/29 11:14:57;;;;;;;3.03;2.00;;;;;;;23.01;40.42;94118.63;5117209;28;20203;-69
2022/09/29 11:17:27;;;;;;;2.33;2.17;;;;;;;23.00;40.20;94117.06;5118329;28;20191;-69
2022/09/29 11:19:55;;;;;;;2.28;2.08;;;;;;;23.07;41.12;94118.84;5118778;28;20184;-69
2022/09/29 11:22:55;;;;;;;2.58;1.95;;;;;;;23.05;40.18;94115.69;5117710;28;20188;-69
2022/09/29 11:25:52;;;;;;;2.83;2.35;;;;;;;23.01;40.04;94132.69;5118414;28;20175;-70
2022/09/29 11:28:31;;;;;;;2.25;2.05;;;;;;;23.01;40.60;94112.22;5117742;28;20206;-69
2022/09/29 11:31:18;;;;;;;2.75;2.35;;;;;;;23.00;40.57;94113.47;5117072;28;20538;-69
2022/09/29 11:33:56;;;;;;;3.25;2.10;;;;;;;23.01;40.32;94115.03;5118282;28;20203;-69
2022/09/29 11:36:28;;;;;;;4.18;2.10;;;;;;;22.92;40.32;94112.94;5118021;28;20194;-69
2022/09/29 11:39:14;;;;;;;3.40;2.30;;;;;;;22.90;41.35;94112.56;5117093;28;20199;-69
2022/09/29 11:42:03;;;;;;;2.38;2.10;;;;;;;22.97;40.76;94111.56;5118385;28;20267;-69
2022/09/29 11:44:45;;;;;;;3.15;2.17;;;;;;;22.83;40.68;94119.22;5118156;28;20191;-70
2022/09/29 11:47:25;;;;;;;2.58;2.38;;;;;;;22.69;41.31;94114.09;5117725;28;20194;-69
2022/09/29 11:50:04;;;;;;;3.35;2.25;;;;;;;22.70;41.42;94112.09;5117312;28;20243;-69